Moro Plt, Maine
Current Conditions -  °F | °C
As of 2:53 PM on Friday 21 Nov 2014 (Local Time) from KHUL Reporting Station
Scattered Clouds Scattered Clouds  
Wind Chill: 12°   Ceiling: Unl
Heat Index: 25°   Visibility: 10mi
Dew Point:   Wind: 17mph
Humidity: 46%   Direction: 330°NNW
Pressure: 29.92"   Gusts: 23mph
Location:  46.2367°N, 68.3001°W
Report Text: KHUL 211953Z AUTO 33015G20KT 10SM SCT050 M04/M14 A2992 RMK AO2 PK WND 29026/1856 SLP140 T10391139
Loading
Personal Weather Stations






























Interactive Weather Map New forecast layout! Learn more

10-Day Weather Forecast

Advertisements
Track Severe Weather on mobile